createdAt,value
2019-03-21T00:01:23.317Z,8.33
2019-03-21T00:03:55.621Z,13.20
2019-03-21T00:06:25.318Z,13.50
2019-03-21T00:08:55.104Z,16.03
2019-03-21T00:11:58.615Z,8.20
2019-03-21T00:14:55.198Z,7.70
2019-03-21T00:17:27.859Z,18.40
2019-03-21T00:19:57.689Z,11.30
2019-03-21T00:22:27.365Z,6.60
2019-03-21T00:24:57.084Z,10.00
2019-03-21T00:27:26.867Z,11.47
2019-03-21T00:29:56.583Z,18.33
2019-03-21T00:32:26.347Z,10.03
2019-03-21T00:34:56.042Z,7.10
2019-03-21T00:37:25.755Z,8.37
2019-03-21T00:39:55.536Z,9.43
2019-03-21T00:42:25.200Z,10.20
2019-03-21T00:44:54.899Z,10.93
2019-03-21T00:47:24.656Z,7.50
2019-03-21T00:49:54.545Z,9.60
2019-03-21T00:52:24.235Z,10.57
2019-03-21T00:54:53.971Z,8.03
2019-03-21T00:57:23.707Z,7.40
2019-03-21T00:59:53.387Z,9.30
2019-03-21T01:02:23.504Z,7.80
2019-03-21T01:04:53.371Z,8.13
2019-03-21T01:07:23.204Z,9.90
2019-03-21T01:09:52.921Z,7.00
2019-03-21T01:12:22.693Z,11.47
2019-03-21T01:14:52.384Z,5.83
2019-03-21T01:17:22.107Z,9.90
2019-03-21T01:19:51.876Z,6.90
2019-03-21T01:22:21.604Z,9.60
2019-03-21T01:24:51.391Z,7.53
2019-03-21T01:27:21.182Z,7.63
2019-03-21T01:29:50.882Z,9.73
2019-03-21T01:32:20.665Z,10.23
2019-03-21T01:34:50.439Z,10.37
2019-03-21T01:37:20.241Z,12.80
2019-03-21T01:39:50.069Z,14.33
2019-03-21T01:42:19.915Z,10.43
2019-03-21T01:44:49.599Z,8.77
2019-03-21T01:47:19.536Z,7.17
2019-03-21T01:49:49.194Z,12.80
2019-03-21T01:52:18.969Z,8.17
2019-03-21T01:54:48.649Z,11.60
2019-03-21T01:57:18.412Z,10.30
2019-03-21T01:59:48.204Z,11.27
2019-03-21T02:02:17.953Z,6.10
2019-03-21T02:04:47.653Z,12.70
2019-03-21T02:07:17.436Z,12.47
2019-03-21T02:09:47.248Z,17.07
2019-03-21T02:12:16.924Z,10.80
2019-03-21T02:14:52.063Z,6.97
2019-03-21T02:17:18.112Z,7.47
2019-03-21T02:19:47.814Z,9.33
2019-03-21T02:22:17.500Z,14.07
2019-03-21T02:24:47.281Z,11.53
2019-03-21T02:27:16.915Z,8.20
2019-03-21T02:29:46.692Z,7.50
2019-03-21T02:32:18.672Z,7.83
2019-03-21T02:34:48.696Z,6.23
2019-03-21T02:37:18.413Z,12.90
2019-03-21T02:39:58.838Z,8.20
2019-03-21T02:42:19.632Z,6.90
2019-03-21T02:44:49.414Z,6.47
2019-03-21T02:47:19.167Z,13.40
2019-03-21T02:49:48.933Z,7.87
2019-03-21T02:52:18.610Z,12.10
2019-03-21T02:54:48.317Z,13.80
2019-03-21T02:57:18.103Z,8.80
2019-03-21T02:59:47.797Z,13.63
2019-03-21T03:02:17.475Z,10.87
2019-03-21T03:04:47.229Z,10.10
2019-03-21T03:07:16.925Z,11.97
2019-03-21T03:09:46.730Z,13.53
2019-03-21T03:12:16.518Z,13.77
2019-03-21T03:14:46.332Z,7.87
2019-03-21T03:17:17.116Z,8.00
2019-03-21T03:19:46.940Z,11.80
2019-03-21T03:22:16.595Z,7.40
2019-03-21T03:24:46.348Z,10.83
2019-03-21T03:27:16.151Z,11.43
2019-03-21T03:29:45.964Z,20.60
2019-03-21T03:32:15.731Z,8.00
2019-03-21T03:34:45.452Z,12.73
2019-03-21T03:37:15.233Z,7.20
2019-03-21T03:39:44.995Z,9.50
2019-03-21T03:42:14.703Z,16.23
2019-03-21T03:44:44.373Z,10.33
2019-03-21T03:47:14.076Z,14.50
2019-03-21T03:49:43.734Z,6.90
2019-03-21T03:52:13.444Z,9.37
2019-03-21T03:54:43.113Z,7.90
2019-03-21T03:57:12.885Z,9.90
2019-03-21T03:59:42.542Z,11.67
2019-03-21T04:02:12.274Z,13.53
2019-03-21T04:04:42.054Z,8.50
2019-03-21T04:07:11.803Z,8.30
2019-03-21T04:09:41.565Z,12.70
2019-03-21T04:12:11.245Z,11.57
2019-03-21T04:14:40.929Z,9.13
2019-03-21T04:17:10.623Z,14.30
2019-03-21T04:19:40.311Z,9.70
2019-03-21T04:22:11.320Z,17.87
2019-03-21T04:24:41.049Z,12.33
2019-03-21T04:27:10.831Z,12.60
2019-03-21T04:29:40.508Z,9.67
2019-03-21T04:32:10.201Z,7.07
2019-03-21T04:34:39.888Z,10.63
2019-03-21T04:37:09.613Z,16.70
2019-03-21T04:39:39.394Z,13.93
2019-03-21T04:42:09.079Z,11.33
2019-03-21T04:44:38.829Z,7.67
2019-03-21T04:47:08.529Z,10.70
2019-03-21T04:49:38.217Z,8.20
2019-03-21T04:52:07.967Z,12.70
2019-03-21T04:54:37.701Z,8.67
2019-03-21T04:57:07.558Z,9.60
2019-03-21T04:59:37.357Z,8.87
2019-03-21T05:02:07.022Z,8.57
2019-03-21T05:04:36.777Z,14.10
2019-03-21T05:07:06.590Z,9.97
2019-03-21T05:09:36.401Z,12.97
2019-03-21T05:12:06.131Z,15.80
2019-03-21T05:14:35.907Z,13.63
2019-03-21T05:17:05.638Z,9.13
2019-03-21T05:19:35.334Z,13.03
2019-03-21T05:22:05.053Z,10.73
2019-03-21T05:24:34.840Z,7.30
2019-03-21T05:27:04.532Z,9.87
2019-03-21T05:29:34.422Z,10.00
2019-03-21T05:32:04.087Z,11.03
2019-03-21T05:34:33.791Z,9.53
2019-03-21T05:37:03.549Z,9.67
2019-03-21T05:39:33.315Z,12.67
2019-03-21T05:42:05.054Z,10.07
2019-03-21T05:44:38.515Z,9.10
2019-03-21T05:47:08.201Z,12.87
2019-03-21T05:49:37.923Z,6.10
2019-03-21T05:52:09.330Z,12.83
2019-03-21T05:54:39.144Z,12.10
2019-03-21T05:57:08.865Z,11.37
2019-03-21T05:59:38.580Z,9.10
2019-03-21T06:02:08.370Z,8.93
2019-03-21T06:04:38.034Z,8.43
2019-03-21T06:07:23.774Z,10.53
2019-03-21T06:09:53.472Z,7.33
2019-03-21T06:12:23.157Z,13.93
2019-03-21T06:14:58.712Z,12.43
2019-03-21T06:17:29.406Z,11.40
2019-03-21T06:20:54.081Z,12.63
2019-03-21T06:23:44.673Z,8.27
2019-03-21T06:26:34.534Z,12.40
2019-03-21T06:29:04.314Z,12.03
2019-03-21T06:31:34.127Z,16.23
2019-03-21T06:34:03.792Z,15.60
2019-03-21T06:36:33.535Z,11.87
2019-03-21T06:39:04.767Z,17.37
2019-03-21T06:41:34.458Z,13.47
2019-03-21T06:44:04.143Z,13.60
2019-03-21T06:46:33.816Z,15.40
2019-03-21T06:49:03.501Z,16.47
2019-03-21T06:51:33.280Z,19.60
2019-03-21T06:54:03.033Z,17.03
2019-03-21T06:56:33.001Z,17.80
2019-03-21T06:59:02.773Z,20.60
2019-03-21T07:01:32.476Z,15.80
2019-03-21T07:04:06.934Z,17.93
2019-03-21T07:06:33.950Z,23.90
2019-03-21T07:09:05.664Z,18.50
2019-03-21T07:11:35.483Z,21.50
2019-03-21T07:14:05.447Z,24.53
2019-03-21T07:16:35.154Z,23.10
2019-03-21T07:19:06.503Z,17.50
2019-03-21T07:21:36.289Z,36.97
2019-03-21T07:24:07.484Z,18.40
2019-03-21T07:26:37.552Z,21.90
2019-03-21T07:29:07.361Z,23.40
2019-03-21T07:31:37.121Z,19.00
2019-03-21T07:34:06.895Z,23.43
2019-03-21T07:36:36.649Z,24.83
2019-03-21T07:39:08.428Z,24.90
2019-03-21T07:41:38.238Z,17.97
2019-03-21T07:44:08.032Z,22.60
2019-03-21T07:46:37.760Z,17.97
2019-03-21T07:49:07.440Z,23.37
2019-03-21T07:51:37.126Z,16.90
2019-03-21T07:54:06.909Z,20.57
2019-03-21T07:56:36.577Z,20.17
2019-03-21T07:59:06.329Z,22.23
2019-03-21T08:01:35.999Z,15.00
2019-03-21T08:04:06.086Z,20.20
2019-03-21T08:06:35.864Z,17.00
2019-03-21T08:09:07.462Z,18.60
2019-03-21T08:11:38.580Z,18.93
2019-03-21T08:14:08.363Z,21.00
2019-03-21T08:16:38.080Z,15.27
2019-03-21T08:19:07.763Z,22.47
2019-03-21T08:21:37.472Z,16.17
2019-03-21T08:24:07.268Z,23.87
2019-03-21T08:26:37.068Z,19.80
2019-03-21T08:29:06.789Z,14.77
2019-03-21T08:31:36.480Z,24.77
2019-03-21T08:34:06.165Z,20.60
2019-03-21T08:36:35.880Z,20.90
2019-03-21T08:39:08.311Z,23.37
2019-03-21T08:41:38.293Z,19.23
2019-03-21T08:44:07.980Z,19.40
2019-03-21T08:46:37.777Z,16.43
2019-03-21T08:49:07.522Z,16.80
2019-03-21T08:51:37.256Z,17.90
2019-03-21T08:54:06.967Z,14.27
2019-03-21T08:56:36.730Z,14.17
2019-03-21T08:59:06.422Z,14.33
2019-03-21T09:01:36.298Z,13.10
2019-03-21T09:04:06.033Z,11.13
2019-03-21T09:06:35.786Z,10.00
2019-03-21T09:09:07.821Z,10.67
2019-03-21T09:11:37.997Z,17.93
2019-03-21T09:14:07.779Z,10.93
2019-03-21T09:16:37.552Z,11.83
2019-03-21T09:19:07.353Z,13.20
2019-03-21T09:21:37.030Z,12.97
2019-03-21T09:24:06.824Z,15.10
2019-03-21T09:26:36.765Z,12.23
2019-03-21T09:29:06.545Z,13.40
2019-03-21T09:31:36.261Z,12.17
2019-03-21T09:34:06.044Z,11.13
2019-03-21T09:36:35.896Z,9.67
2019-03-21T09:39:07.609Z,16.77
2019-03-21T09:41:37.612Z,11.93
2019-03-21T09:44:07.339Z,13.27
2019-03-21T09:46:37.364Z,13.87
2019-03-21T09:49:07.098Z,16.93
2019-03-21T09:51:36.871Z,8.17
2019-03-21T09:54:09.858Z,10.77
2019-03-21T09:56:38.038Z,12.37
2019-03-21T09:59:07.804Z,11.23
2019-03-21T10:01:37.888Z,9.50
2019-03-21T10:04:07.610Z,7.40
2019-03-21T10:06:37.361Z,8.03
2019-03-21T10:09:09.047Z,12.37
2019-03-21T10:11:38.767Z,12.80
2019-03-21T10:14:08.562Z,9.40
2019-03-21T10:16:38.295Z,13.17
2019-03-21T10:19:07.996Z,8.20
2019-03-21T10:21:43.327Z,4.80
2019-03-21T10:24:09.101Z,11.77
2019-03-21T10:26:38.908Z,9.50
2019-03-21T10:29:08.623Z,7.40
2019-03-21T10:31:38.305Z,12.93
2019-03-21T10:34:08.098Z,6.90
2019-03-21T10:36:37.984Z,6.70
2019-03-21T10:39:08.172Z,12.70
2019-03-21T10:41:37.872Z,6.23
2019-03-21T10:44:07.670Z,7.83
2019-03-21T10:46:37.463Z,8.00
2019-03-21T10:49:07.156Z,7.80
2019-03-21T10:51:36.853Z,5.10
2019-03-21T10:54:06.548Z,7.63
2019-03-21T10:56:36.233Z,8.37
2019-03-21T10:59:06.009Z,10.03
2019-03-21T11:01:35.701Z,5.80
2019-03-21T11:04:05.416Z,8.60
2019-03-21T11:06:35.336Z,11.23
2019-03-21T11:09:08.457Z,3.70
2019-03-21T11:11:38.254Z,5.17
2019-03-21T11:14:08.032Z,8.30
2019-03-21T11:16:37.754Z,6.40
2019-03-21T11:19:07.480Z,11.60
2019-03-21T11:21:37.167Z,6.13
2019-03-21T11:24:07.010Z,9.50
2019-03-21T11:26:36.728Z,8.13
2019-03-21T11:29:06.518Z,3.63
2019-03-21T11:31:36.224Z,8.50
2019-03-21T11:34:06.008Z,6.20
2019-03-21T11:36:38.482Z,6.40
2019-03-21T11:39:08.623Z,7.40
2019-03-21T11:41:38.321Z,7.97
2019-03-21T11:44:08.091Z,6.93
2019-03-21T11:46:37.914Z,6.20
2019-03-21T11:49:07.586Z,14.60
2019-03-21T11:51:37.524Z,5.93
2019-03-21T11:54:07.298Z,4.70
2019-03-21T11:56:37.086Z,6.77
2019-03-21T11:59:06.833Z,8.87
2019-03-21T12:01:36.589Z,9.63
2019-03-21T12:04:06.463Z,8.07
2019-03-21T12:06:36.138Z,8.80
2019-03-21T12:09:07.748Z,6.63
2019-03-21T12:11:37.638Z,9.20
2019-03-21T12:14:07.505Z,4.07
2019-03-21T12:16:37.270Z,5.20
2019-03-21T12:19:07.048Z,10.43
2019-03-21T12:21:36.759Z,9.23
2019-03-21T12:24:06.501Z,7.30
2019-03-21T12:26:36.184Z,8.53
2019-03-21T12:29:05.965Z,4.57
2019-03-21T12:31:42.874Z,7.30
2019-03-21T12:34:12.621Z,6.80
2019-03-21T12:36:42.420Z,10.60
2019-03-21T12:39:12.147Z,5.80
2019-03-21T12:41:44.776Z,12.67
2019-03-21T12:44:14.473Z,9.20
2019-03-21T12:46:44.231Z,9.07
2019-03-21T12:49:14.047Z,8.23
2019-03-21T12:51:45.752Z,14.43
2019-03-21T12:54:15.169Z,4.97
2019-03-21T12:56:44.940Z,5.50
2019-03-21T12:59:14.732Z,10.23
2019-03-21T13:01:44.510Z,6.60
2019-03-21T13:04:14.459Z,4.37
2019-03-21T13:06:44.153Z,12.70
2019-03-21T13:09:13.960Z,7.47
2019-03-21T13:11:43.664Z,4.10
2019-03-21T13:14:13.409Z,5.17
2019-03-21T13:16:43.204Z,8.00
2019-03-21T13:19:13.035Z,9.93
2019-03-21T13:21:42.787Z,12.87
2019-03-21T13:24:12.472Z,4.60
2019-03-21T13:26:42.269Z,5.57
2019-03-21T13:29:12.029Z,7.63
2019-03-21T13:31:41.851Z,8.63
2019-03-21T13:34:11.629Z,9.13
2019-03-21T13:36:41.365Z,8.43
2019-03-21T13:39:11.068Z,6.67
2019-03-21T13:41:40.918Z,9.83
2019-03-21T13:44:10.744Z,7.00
2019-03-21T13:46:40.413Z,6.33
2019-03-21T13:49:10.112Z,7.80
2019-03-21T13:51:39.906Z,7.80
2019-03-21T13:54:09.692Z,13.70
2019-03-21T13:56:39.483Z,7.40
2019-03-21T13:59:09.172Z,5.17
2019-03-21T14:01:38.884Z,9.50
2019-03-21T14:04:08.590Z,8.10
2019-03-21T14:06:38.326Z,6.87
2019-03-21T14:09:09.162Z,6.77
2019-03-21T14:11:38.896Z,6.30
2019-03-21T14:14:08.557Z,6.60
2019-03-21T14:16:38.405Z,5.53
2019-03-21T14:19:08.159Z,9.20
2019-03-21T14:21:37.985Z,7.70
2019-03-21T14:24:07.681Z,7.20
2019-03-21T14:26:37.492Z,6.30
2019-03-21T14:29:12.636Z,5.43
2019-03-21T14:31:38.733Z,5.17
2019-03-21T14:34:08.463Z,4.90
2019-03-21T14:36:38.256Z,6.43
2019-03-21T14:39:08.266Z,6.20
2019-03-21T14:41:37.997Z,8.73
2019-03-21T14:44:07.701Z,4.47
2019-03-21T14:46:37.512Z,5.40
2019-03-21T14:49:07.315Z,5.70
2019-03-21T14:51:37.075Z,6.27
2019-03-21T14:54:06.964Z,6.53
2019-03-21T14:56:36.659Z,6.80
2019-03-21T14:59:06.451Z,5.53
2019-03-21T15:01:36.191Z,5.37
2019-03-21T15:04:05.981Z,5.00
2019-03-21T15:06:35.743Z,6.03
2019-03-21T15:09:06.906Z,7.00
2019-03-21T15:11:36.721Z,5.80
2019-03-21T15:14:06.448Z,8.27
2019-03-21T15:16:36.180Z,4.73
2019-03-21T15:19:06.042Z,6.40
2019-03-21T15:21:35.862Z,4.43
2019-03-21T15:24:05.648Z,6.13
2019-03-21T15:26:35.393Z,5.57
2019-03-21T15:29:06.912Z,5.53
2019-03-21T15:31:36.595Z,5.40
2019-03-21T15:34:06.384Z,5.40
2019-03-21T15:36:36.111Z,5.40
2019-03-21T15:39:08.656Z,5.70
2019-03-21T15:41:39.040Z,6.20
2019-03-21T15:44:09.971Z,4.37
2019-03-21T15:46:39.636Z,4.43
2019-03-21T15:49:09.418Z,5.17
2019-03-21T15:51:39.097Z,7.60
2019-03-21T15:54:08.830Z,8.80
2019-03-21T15:56:38.732Z,5.00
2019-03-21T15:59:08.495Z,4.00
2019-03-21T16:01:38.244Z,7.10
2019-03-21T16:04:07.979Z,5.03
2019-03-21T16:06:37.747Z,3.77
2019-03-21T16:09:08.456Z,7.40
2019-03-21T16:11:38.338Z,9.37
2019-03-21T16:14:08.176Z,4.07
2019-03-21T16:16:37.945Z,5.23
2019-03-21T16:19:07.798Z,10.70
2019-03-21T16:21:37.534Z,8.50
2019-03-21T16:24:07.267Z,7.20
2019-03-21T16:26:37.065Z,8.20
2019-03-21T16:29:06.730Z,5.37
2019-03-21T16:31:36.422Z,4.10
2019-03-21T16:34:06.224Z,5.27
2019-03-21T16:36:54.819Z,4.27
2019-03-21T16:39:24.549Z,4.67
2019-03-21T16:41:54.357Z,4.80
2019-03-21T16:44:24.065Z,4.23
2019-03-21T16:46:53.816Z,4.67
2019-03-21T16:49:23.562Z,5.63
2019-03-21T16:51:53.421Z,5.33
2019-03-21T16:54:23.111Z,5.50
2019-03-21T16:56:52.944Z,4.43
2019-03-21T16:59:22.695Z,7.63
2019-03-21T17:01:52.427Z,8.27
2019-03-21T17:04:22.403Z,6.93
2019-03-21T17:06:54.126Z,5.70
2019-03-21T17:09:23.971Z,6.87
2019-03-21T17:11:53.725Z,10.07
2019-03-21T17:14:23.587Z,5.23
2019-03-21T17:16:53.414Z,4.67
2019-03-21T17:19:23.170Z,5.20
2019-03-21T17:21:52.951Z,5.60
2019-03-21T17:24:29.215Z,6.63
2019-03-21T17:26:54.202Z,5.70
2019-03-21T17:29:23.935Z,6.73
2019-03-21T17:31:54.845Z,9.23
2019-03-21T17:34:24.989Z,9.33
2019-03-21T17:36:54.756Z,6.53
2019-03-21T17:39:24.619Z,6.20
2019-03-21T17:41:54.316Z,9.00
2019-03-21T17:44:24.034Z,7.03
2019-03-21T17:46:53.729Z,8.37
2019-03-21T17:49:23.587Z,9.50
2019-03-21T17:51:53.369Z,5.40
2019-03-21T17:54:23.073Z,6.63
2019-03-21T17:56:52.820Z,4.83
2019-03-21T17:59:22.536Z,10.50
2019-03-21T18:01:52.292Z,9.03
2019-03-21T18:04:22.310Z,5.50
2019-03-21T18:06:52.132Z,5.83
2019-03-21T18:09:21.835Z,5.40
2019-03-21T18:11:51.524Z,7.73
2019-03-21T18:14:21.281Z,8.43
2019-03-21T18:16:50.950Z,7.80
2019-03-21T18:19:20.684Z,4.60
2019-03-21T18:21:50.420Z,7.90
2019-03-21T18:24:20.240Z,8.50
2019-03-21T18:26:49.961Z,4.57
2019-03-21T18:29:19.708Z,7.97
2019-03-21T18:31:49.389Z,4.87
2019-03-21T18:34:19.159Z,5.10
2019-03-21T18:36:48.964Z,11.03
2019-03-21T18:39:18.875Z,19.43
2019-03-21T18:41:48.762Z,24.47
2019-03-21T18:44:18.559Z,15.20
2019-03-21T18:46:48.427Z,13.10
2019-03-21T18:49:18.153Z,12.50
2019-03-21T18:51:48.048Z,10.37
2019-03-21T18:54:17.710Z,13.87
2019-03-21T18:56:47.460Z,13.83
2019-03-21T18:59:17.205Z,10.33
2019-03-21T19:01:57.856Z,11.00
2019-03-21T19:04:18.407Z,15.23
2019-03-21T19:06:48.347Z,10.90
2019-03-21T19:09:18.272Z,7.40
2019-03-21T19:11:48.102Z,14.67
2019-03-21T19:14:17.846Z,12.07
2019-03-21T19:16:47.620Z,8.70
2019-03-21T19:19:17.390Z,13.30
2019-03-21T19:21:47.103Z,11.53
2019-03-21T19:24:16.812Z,8.50
2019-03-21T19:26:46.649Z,12.83
2019-03-21T19:29:16.412Z,11.43
2019-03-21T19:31:46.260Z,13.53
2019-03-21T19:34:16.027Z,11.37
2019-03-21T19:36:45.800Z,12.00
2019-03-21T19:39:15.530Z,11.33
2019-03-21T19:41:45.398Z,7.83
2019-03-21T19:44:15.162Z,14.83
2019-03-21T19:46:45.006Z,13.50
2019-03-21T19:49:14.725Z,16.90
2019-03-21T19:51:44.473Z,22.10
2019-03-21T19:54:14.329Z,12.37
2019-03-21T19:56:44.064Z,11.90
2019-03-21T19:59:13.877Z,18.83
2019-03-21T20:01:43.657Z,10.60
2019-03-21T20:04:13.423Z,14.87
2019-03-21T20:06:43.214Z,10.93
2019-03-21T20:09:12.908Z,12.10
2019-03-21T20:11:42.590Z,12.00
2019-03-21T20:14:12.416Z,10.90
2019-03-21T20:16:42.196Z,15.97
2019-03-21T20:19:11.942Z,13.40
2019-03-21T20:21:47.716Z,12.73
2019-03-21T20:24:13.219Z,15.43
2019-03-21T20:26:43.009Z,14.17
2019-03-21T20:29:12.917Z,11.90
2019-03-21T20:31:42.724Z,9.83
2019-03-21T20:34:12.975Z,10.90
2019-03-21T20:36:43.033Z,5.60
2019-03-21T20:39:12.840Z,9.80
2019-03-21T20:41:42.522Z,7.90
2019-03-21T20:44:15.268Z,11.83
2019-03-21T20:46:43.657Z,7.43
2019-03-21T20:49:13.407Z,15.13
2019-03-21T20:51:43.122Z,13.33
2019-03-21T20:54:13.071Z,15.67
2019-03-21T20:56:42.837Z,20.63
2019-03-21T20:59:12.604Z,16.80
2019-03-21T21:01:42.342Z,14.03
2019-03-21T21:04:12.129Z,13.10
2019-03-21T21:06:41.868Z,15.00
2019-03-21T21:09:11.660Z,14.77
2019-03-21T21:11:41.387Z,12.90
2019-03-21T21:14:11.193Z,11.47
2019-03-21T21:16:40.868Z,11.20
2019-03-21T21:19:10.550Z,10.30
2019-03-21T21:21:40.304Z,16.30
2019-03-21T21:24:10.012Z,9.57
2019-03-21T21:26:39.916Z,8.80
2019-03-21T21:29:09.650Z,12.53
2019-03-21T21:31:39.540Z,11.97
2019-03-21T21:34:09.307Z,10.73
2019-03-21T21:36:39.056Z,8.83
2019-03-21T21:39:09.358Z,10.30
2019-03-21T21:41:39.152Z,11.27
2019-03-21T21:44:09.751Z,8.80
2019-03-21T21:46:39.567Z,11.90
2019-03-21T21:49:09.304Z,10.03
2019-03-21T21:51:39.057Z,11.33
2019-03-21T21:54:08.807Z,9.23
2019-03-21T21:56:38.515Z,15.20
2019-03-21T21:59:08.290Z,10.00
2019-03-21T22:01:37.953Z,8.37
2019-03-21T22:04:07.694Z,8.63
2019-03-21T22:06:37.459Z,7.90
2019-03-21T22:09:10.516Z,13.40
2019-03-21T22:11:40.252Z,6.60
2019-03-21T22:14:09.960Z,13.00
2019-03-21T22:16:39.721Z,12.00
2019-03-21T22:19:09.517Z,14.30
2019-03-21T22:21:39.324Z,9.10
2019-03-21T22:24:09.204Z,12.53
2019-03-21T22:26:38.966Z,13.40
2019-03-21T22:29:08.721Z,11.13
2019-03-21T22:31:38.424Z,14.70
2019-03-21T22:34:08.210Z,10.20
2019-03-21T22:36:48.886Z,13.23
2019-03-21T22:39:09.885Z,12.97
2019-03-21T22:41:39.684Z,12.03
2019-03-21T22:44:09.407Z,11.70
2019-03-21T22:46:39.101Z,11.95
2019-03-21T22:49:08.898Z,9.70
2019-03-21T22:51:38.335Z,10.63
2019-03-21T22:54:08.110Z,15.27
2019-03-21T22:56:41.496Z,10.27
2019-03-21T22:59:09.547Z,13.13
2019-03-21T23:01:39.288Z,11.40
2019-03-21T23:04:09.136Z,10.17
2019-03-21T23:06:38.872Z,10.77
2019-03-21T23:09:08.968Z,10.93
2019-03-21T23:11:38.936Z,13.27
2019-03-21T23:14:08.718Z,12.13
2019-03-21T23:16:38.408Z,10.07
2019-03-21T23:19:08.179Z,12.70
2019-03-21T23:21:37.974Z,10.97
2019-03-21T23:24:07.685Z,9.30
2019-03-21T23:26:37.412Z,11.13
2019-03-21T23:29:07.101Z,10.23
2019-03-21T23:31:36.965Z,9.50
2019-03-21T23:34:06.744Z,8.23
2019-03-21T23:36:36.565Z,12.93
2019-03-21T23:39:07.916Z,10.60
2019-03-21T23:41:37.597Z,13.30
2019-03-21T23:44:07.289Z,10.27
2019-03-21T23:46:37.041Z,18.10
2019-03-21T23:49:06.715Z,23.93
2019-03-21T23:51:37.955Z,10.70
2019-03-21T23:54:07.628Z,12.33
2019-03-21T23:56:37.462Z,14.20
2019-03-21T23:59:07.212Z,14.00
